Terminal Aerodrome Forecast
Issued by NWS Denver/Boulder, CO

Home | Current Version | Previous Version | Text Only | Print | Product List | Glossary On
Versions: 1 2 3 4 5 6 7 8 9 10 11 12 13 14 15 16 17 18 19 20 21 22 23 24 25 26 27 28 29 30 31 32 33 34 35 36 37 38 39 40
000
FTUS45 KBOU 160904 AAA
TAFDEN
TAF AMD
KDEN 160904Z 1609/1712 16008KT P6SM FEW040
      TEMPO 1609/1611 6SM BR
     FM161200 17007KT P6SM FEW220
     FM161800 VRB05KT P6SM FEW080 SCT220
     FM170300 24008KT P6SM SCT220
     FM170600 21008KT P6SM SCT220=

USA.gov is the U.S. government's official web portal to all federal, state and local government web resources and services.